Time;durP1;ratioP1;P1;durP2;ratioP2;P2;SDS_P1;SDS_P2;PMS_P1;PMS_P2;Temp;Humidity;BMP_temperature;BMP_pressure;BME280_temperature;BME280_humidity;BME280_pressure;Samples;Min_cycle;Max_cycle;Signal;HPM_P1;HPM_P2
2024/03/19 00:01:43;;;;;;;0.70;0.70;;;;;;;7.35;100.00;98692.22;6154663;23;20005;-92
2024/03/19 00:04:08;;;;;;;0.60;0.60;;;;;;;7.38;100.00;98686.13;6131304;23;20465;-92
2024/03/19 00:06:35;;;;;;;0.60;0.60;;;;;;;7.30;100.00;98688.47;6157162;23;20432;-92
2024/03/19 00:09:01;;;;;;;0.70;0.70;;;;;;;7.29;100.00;98694.63;6158166;23;20009;-91
2024/03/19 00:11:26;;;;;;;0.70;0.70;;;;;;;7.26;100.00;98683.88;6154667;23;20445;-92
2024/03/19 00:13:52;;;;;;;0.60;0.60;;;;;;;7.31;100.00;98684.97;6152994;23;20017;-92
2024/03/19 00:16:18;;;;;;;0.60;0.60;;;;;;;7.24;100.00;98688.22;6156972;23;20025;-92
2024/03/19 00:18:43;;;;;;;0.70;0.70;;;;;;;7.25;100.00;98687.38;6132254;23;20112;-90
2024/03/19 00:21:12;;;;;;;0.60;0.60;;;;;;;7.26;100.00;98682.97;6160532;23;20009;-91
2024/03/19 00:23:37;;;;;;;0.60;0.60;;;;;;;7.30;100.00;98695.53;6164397;23;20064;-90
2024/03/19 00:26:05;;;;;;;0.60;0.60;;;;;;;7.31;100.00;98690.25;6162856;23;20013;-90
2024/03/19 00:28:31;;;;;;;0.60;0.60;;;;;;;7.30;100.00;98690.22;6130748;23;20061;-90
2024/03/19 00:30:59;;;;;;;0.70;0.70;;;;;;;7.29;100.00;98689.31;6155096;23;20010;-92
2024/03/19 00:33:26;;;;;;;0.70;0.70;;;;;;;7.40;100.00;98685.34;6163958;23;20065;-90
2024/03/19 00:35:52;;;;;;;0.60;0.60;;;;;;;7.32;100.00;98686.75;6167145;23;20013;-92
2024/03/19 00:38:19;;;;;;;0.70;0.70;;;;;;;7.21;100.00;98682.78;6158108;23;20405;-91
2024/03/19 00:40:45;;;;;;;0.60;0.60;;;;;;;7.13;100.00;98684.19;6158581;23;20014;-91
2024/03/19 00:43:10;;;;;;;0.60;0.60;;;;;;;7.11;100.00;98683.22;6142503;23;20067;-91
2024/03/19 00:45:36;;;;;;;0.70;0.70;;;;;;;7.06;100.00;98672.44;6131140;23;20017;-90
2024/03/19 00:48:01;;;;;;;0.60;0.60;;;;;;;7.09;100.00;98677.88;6125166;23;20021;-90
2024/03/19 00:50:27;;;;;;;0.60;0.60;;;;;;;7.14;100.00;98672.75;6125186;23;20032;-91
2024/03/19 00:52:52;;;;;;;0.60;0.60;;;;;;;7.15;100.00;98683.44;6148974;23;20009;-91
2024/03/19 00:55:18;;;;;;;0.60;0.60;;;;;;;7.08;100.00;98678.69;6151244;23;20021;-90
2024/03/19 00:57:43;;;;;;;0.60;0.60;;;;;;;7.11;100.00;98680.59;6151667;23;20019;-90
2024/03/19 01:00:14;;;;;;;0.60;0.60;;;;;;;7.09;100.00;98682.25;6125103;23;20032;-91
2024/03/19 01:02:44;;;;;;;0.60;0.60;;;;;;;7.20;100.00;98680.97;6126603;23;20028;-87
2024/03/19 01:05:11;;;;;;;0.60;0.60;;;;;;;7.17;100.00;98683.47;6128867;23;20024;-91
2024/03/19 01:07:41;;;;;;;0.70;0.70;;;;;;;7.16;100.00;98684.34;6131261;23;20104;-91
2024/03/19 01:10:11;;;;;;;0.70;0.70;;;;;;;7.15;100.00;98679.88;6133825;23;20013;-91
2024/03/19 01:12:38;;;;;;;0.60;0.60;;;;;;;7.26;100.00;98680.31;6156712;23;20017;-91
2024/03/19 01:15:05;;;;;;;0.70;0.70;;;;;;;7.20;100.00;98684.53;6157847;23;20021;-90
2024/03/19 01:17:32;;;;;;;0.60;0.60;;;;;;;7.21;100.00;98677.47;6133157;23;20108;-92
2024/03/19 01:19:57;;;;;;;0.70;0.70;;;;;;;7.20;100.00;98676.56;6156412;23;20017;-91
2024/03/19 01:22:23;;;;;;;0.65;0.65;;;;;;;7.12;100.00;98672.69;6156268;23;20005;-91
2024/03/19 01:24:51;;;;;;;0.70;0.70;;;;;;;7.01;100.00;98670.44;6162828;23;20010;-91
2024/03/19 01:27:17;;;;;;;0.70;0.70;;;;;;;6.92;100.00;98663.00;6160588;23;20006;-92
2024/03/19 01:29:42;;;;;;;0.70;0.70;;;;;;;6.96;100.00;98666.69;6138609;23;20018;-91
2024/03/19 01:32:08;;;;;;;0.70;0.70;;;;;;;6.91;100.00;98663.84;6162590;23;20028;-92
2024/03/19 01:34:34;;;;;;;0.70;0.70;;;;;;;6.87;100.00;98667.19;6162521;23;20005;-92
2024/03/19 01:36:59;;;;;;;0.60;0.60;;;;;;;6.84;100.00;98665.31;6165384;23;20013;-91
2024/03/19 01:39:25;;;;;;;0.70;0.70;;;;;;;6.82;100.00;98660.78;6164752;23;20010;-91
2024/03/19 01:41:53;;;;;;;0.70;0.70;;;;;;;6.72;100.00;98669.19;6161862;23;20002;-92
2024/03/19 01:44:20;;;;;;;0.70;0.70;;;;;;;6.55;100.00;98668.44;6140525;23;20015;-91
2024/03/19 01:46:46;;;;;;;0.70;0.70;;;;;;;6.47;100.00;98662.84;6169260;23;20018;-91
2024/03/19 01:49:12;;;;;;;0.60;0.60;;;;;;;6.41;100.00;98662.53;6168505;23;20552;-91
2024/03/19 01:51:38;;;;;;;0.60;0.60;;;;;;;6.40;100.00;98664.28;6168883;23;20010;-91
2024/03/19 01:54:05;;;;;;;0.70;0.70;;;;;;;6.30;100.00;98664.72;6169492;23;20010;-90
2024/03/19 01:56:31;;;;;;;0.80;0.80;;;;;;;6.29;100.00;98665.56;6170851;23;20017;-91
2024/03/19 01:58:58;;;;;;;0.70;0.70;;;;;;;6.36;100.00;98662.34;6168965;23;20005;-90
2024/03/19 02:01:24;;;;;;;0.80;0.80;;;;;;;6.23;100.00;98670.59;6169181;23;20039;-91
2024/03/19 02:03:49;;;;;;;0.70;0.70;;;;;;;6.31;100.00;98666.53;6169290;23;20044;-90
2024/03/19 02:06:16;;;;;;;0.70;0.70;;;;;;;6.32;100.00;98659.47;6146005;23;20010;-90
2024/03/19 02:09:08;;;;;;;0.80;0.80;;;;;;;6.20;100.00;98666.91;6146197;23;20100;-91
2024/03/19 02:11:34;;;;;;;0.70;0.70;;;;;;;6.25;100.00;98663.59;6145078;23;20056;-91
2024/03/19 02:14:00;;;;;;;0.80;0.80;;;;;;;6.36;100.00;98666.72;6163335;23;20017;-90
2024/03/19 02:16:26;;;;;;;0.70;0.70;;;;;;;6.32;100.00;98668.31;6136467;23;20002;-91
2024/03/19 02:19:04;;;;;;;0.70;0.70;;;;;;;6.38;100.00;98662.44;6161954;23;20041;-91
2024/03/19 02:21:30;;;;;;;0.80;0.80;;;;;;;6.19;100.00;98659.78;6167377;23;20076;-91
2024/03/19 02:23:56;;;;;;;0.70;0.70;;;;;;;5.91;100.00;98655.84;6142190;23;20005;-89
2024/03/19 02:26:23;;;;;;;0.70;0.70;;;;;;;5.81;100.00;98662.47;6168073;23;20017;-90
2024/03/19 02:28:49;;;;;;;0.70;0.70;;;;;;;5.91;100.00;98663.78;6164950;23;20009;-90
2024/03/19 02:31:14;;;;;;;0.77;0.77;;;;;;;6.04;100.00;98655.59;6162510;23;20453;-92
2024/03/19 02:33:44;;;;;;;0.70;0.70;;;;;;;6.05;100.00;98652.13;6129413;23;20013;-91
2024/03/19 02:36:12;;;;;;;0.70;0.70;;;;;;;5.96;100.00;98645.50;6132948;23;20010;-92
2024/03/19 02:38:37;;;;;;;0.70;0.70;;;;;;;5.89;100.00;98637.25;6154067;23;20067;-90
2024/03/19 02:41:03;;;;;;;0.70;0.70;;;;;;;6.01;100.00;98639.56;6153747;23;20371;-91
2024/03/19 02:43:29;;;;;;;0.70;0.70;;;;;;;6.03;100.00;98642.28;6128108;23;20009;-91
2024/03/19 02:45:55;;;;;;;0.70;0.70;;;;;;;5.96;100.00;98635.81;6152442;23;20017;-90
2024/03/19 02:48:21;;;;;;;0.70;0.70;;;;;;;6.07;100.00;98637.19;6151963;23;20009;-89
2024/03/19 02:50:46;;;;;;;0.70;0.70;;;;;;;6.15;100.00;98635.81;6125635;23;20013;-91
2024/03/19 02:53:12;;;;;;;0.70;0.70;;;;;;;6.15;100.00;98633.16;6151223;23;20019;-91
2024/03/19 02:55:38;;;;;;;0.70;0.70;;;;;;;6.29;100.00;98633.78;6150718;23;20433;-92
2024/03/19 02:58:03;;;;;;;0.70;0.70;;;;;;;6.45;100.00;98629.13;6151745;23;20006;-90
2024/03/19 03:00:29;;;;;;;0.70;0.70;;;;;;;6.47;100.00;98636.31;6128050;23;20016;-90
2024/03/19 03:02:54;;;;;;;0.70;0.70;;;;;;;6.38;100.00;98627.97;6127862;23;20037;-91
2024/03/19 03:05:20;;;;;;;0.70;0.70;;;;;;;6.35;100.00;98626.06;6126228;23;20342;-90
2024/03/19 03:07:46;;;;;;;0.70;0.70;;;;;;;6.46;100.00;98629.19;6151009;23;20013;-91
2024/03/19 03:10:11;;;;;;;0.70;0.70;;;;;;;6.48;100.00;98629.28;6152611;23;20010;-89
2024/03/19 03:12:37;;;;;;;0.68;0.68;;;;;;;6.43;100.00;98631.72;6152124;23;20088;-90
2024/03/19 03:15:04;;;;;;;0.60;0.60;;;;;;;6.50;100.00;98638.19;6151094;23;20438;-92
2024/03/19 03:17:30;;;;;;;;;;;;;;;6.54;100.00;98632.19;6126549;23;20020;-90
2024/03/19 03:19:56;;;;;;;0.70;0.70;;;;;;;6.56;100.00;98636.69;6151987;23;20400;-90
2024/03/19 03:22:22;;;;;;;0.70;0.70;;;;;;;6.55;100.00;98634.88;6151804;23;20059;-90
2024/03/19 03:24:47;;;;;;;0.70;0.70;;;;;;;6.59;100.00;98641.25;6126329;23;20017;-90
2024/03/19 03:27:13;;;;;;;0.63;0.63;;;;;;;6.58;100.00;98644.75;6151268;23;20013;-90
2024/03/19 03:29:38;;;;;;;0.70;0.70;;;;;;;6.47;100.00;98646.00;6152252;23;20016;-90
2024/03/19 03:32:04;;;;;;;0.70;0.70;;;;;;;6.51;100.00;98642.66;6153903;23;20433;-90
2024/03/19 03:34:31;;;;;;;0.77;0.77;;;;;;;6.54;100.00;98648.09;6154242;23;20045;-91
2024/03/19 03:36:56;;;;;;;0.77;0.77;;;;;;;6.36;100.00;98648.19;6155617;23;20001;-90
2024/03/19 03:39:22;;;;;;;0.70;0.70;;;;;;;6.30;100.00;98647.91;6152769;23;20425;-91
2024/03/19 03:41:47;;;;;;;0.70;0.70;;;;;;;6.47;100.00;98652.22;6154263;23;20101;-91
2024/03/19 03:44:13;;;;;;;0.70;0.70;;;;;;;6.43;100.00;98656.47;6129531;23;20025;-91
2024/03/19 03:46:39;;;;;;;0.70;0.70;;;;;;;6.33;100.00;98658.66;6154913;23;20080;-91
2024/03/19 03:49:05;;;;;;;0.70;0.70;;;;;;;6.24;100.00;98664.44;6152938;23;20091;-91
2024/03/19 03:51:31;;;;;;;0.70;0.70;;;;;;;6.16;100.00;98657.88;6127583;23;20021;-91
2024/03/19 03:53:58;;;;;;;0.70;0.70;;;;;;;6.22;100.00;98660.81;6151300;23;20009;-91
2024/03/19 03:56:23;;;;;;;0.80;0.80;;;;;;;6.22;100.00;98670.50;6127653;23;20266;-90
2024/03/19 03:58:49;;;;;;;0.75;0.75;;;;;;;6.22;100.00;98662.56;6153868;23;20036;-89
2024/03/19 04:01:14;;;;;;;0.70;0.70;;;;;;;6.08;100.00;98667.22;6155642;23;20013;-91
2024/03/19 04:03:40;;;;;;;0.75;0.75;;;;;;;6.04;100.00;98665.31;6156807;23;20022;-90
2024/03/19 04:06:05;;;;;;;0.70;0.70;;;;;;;5.99;100.00;98667.75;6128806;23;20129;-89
2024/03/19 04:08:30;;;;;;;0.70;0.70;;;;;;;5.85;100.00;98669.72;6128746;23;20022;-90
2024/03/19 04:10:56;;;;;;;0.80;0.80;;;;;;;5.71;100.00;98677.84;6131846;23;20016;-90
2024/03/19 04:13:21;;;;;;;0.80;0.80;;;;;;;5.57;100.00;98675.44;6159096;23;20494;-90
2024/03/19 04:15:49;;;;;;;0.70;0.70;;;;;;;5.47;100.00;98682.88;6129930;23;20040;-90
2024/03/19 04:18:14;;;;;;;0.73;0.73;;;;;;;5.32;100.00;98675.09;6154896;23;20024;-92
2024/03/19 04:20:41;;;;;;;0.70;0.70;;;;;;;5.17;100.00;98680.53;6154198;23;20033;-90
2024/03/19 04:23:07;;;;;;;0.70;0.70;;;;;;;4.98;100.00;98675.16;6156937;23;20155;-91
2024/03/19 04:25:32;;;;;;;0.70;0.70;;;;;;;4.84;100.00;98679.78;6172241;23;20013;-91
2024/03/19 04:27:58;;;;;;;0.70;0.70;;;;;;;4.80;100.00;98683.09;6168870;23;20001;-93
2024/03/19 04:30:23;;;;;;;0.70;0.70;;;;;;;4.86;100.00;98686.03;6141674;23;20033;-91
2024/03/19 04:32:49;;;;;;;0.70;0.70;;;;;;;5.18;100.00;98679.72;6174897;23;20002;-92
2024/03/19 04:35:14;;;;;;;0.80;0.80;;;;;;;5.16;100.00;98681.34;6153717;23;20192;-91
2024/03/19 04:37:40;;;;;;;0.70;0.70;;;;;;;4.98;100.00;98688.38;6139049;23;20100;-91
2024/03/19 04:40:07;;;;;;;0.88;0.88;;;;;;;4.74;100.00;98688.94;6136859;23;20009;-91
2024/03/19 04:42:32;;;;;;;0.80;0.80;;;;;;;4.79;100.00;98686.53;6159750;23;20036;-90
2024/03/19 04:44:58;;;;;;;0.80;0.80;;;;;;;4.60;100.00;98690.91;6160463;23;20410;-91
2024/03/19 04:47:23;;;;;;;0.80;0.80;;;;;;;4.62;100.00;98690.97;6134217;23;20009;-91
2024/03/19 04:49:49;;;;;;;0.80;0.80;;;;;;;4.66;100.00;98692.94;6132368;23;20076;-91
2024/03/19 04:52:14;;;;;;;0.80;0.80;;;;;;;4.72;100.00;98690.63;6135338;23;20010;-91
2024/03/19 04:54:40;;;;;;;0.80;0.80;;;;;;;4.53;100.00;98688.75;6154104;23;20048;-91
2024/03/19 04:57:05;;;;;;;0.80;0.80;;;;;;;4.77;100.00;98693.50;6155902;23;20009;-91
2024/03/19 04:59:31;;;;;;;0.80;0.80;;;;;;;4.63;100.00;98692.78;6153937;23;20033;-91
2024/03/19 05:01:56;;;;;;;0.80;0.80;;;;;;;4.71;100.00;98699.38;6129228;23;20029;-90
2024/03/19 05:04:22;;;;;;;0.80;0.80;;;;;;;4.92;100.00;98690.72;6129936;23;20036;-90
2024/03/19 05:06:47;;;;;;;0.80;0.80;;;;;;;4.98;100.00;98685.72;6154793;23;20422;-90
2024/03/19 05:09:14;;;;;;;0.80;0.80;;;;;;;4.86;100.00;98683.38;6152793;23;20020;-91
2024/03/19 05:11:40;;;;;;;0.80;0.80;;;;;;;4.84;100.00;98682.41;6126644;23;20017;-90
2024/03/19 05:14:06;;;;;;;0.80;0.80;;;;;;;4.84;100.00;98680.69;6152263;23;20005;-90
2024/03/19 05:16:31;;;;;;;0.80;0.80;;;;;;;4.82;100.00;98676.13;6128425;23;20010;-91
2024/03/19 05:18:57;;;;;;;0.70;0.70;;;;;;;4.80;100.00;98676.06;6153919;23;20009;-90
2024/03/19 05:21:22;;;;;;;0.80;0.80;;;;;;;4.77;100.00;98677.63;6152729;23;20009;-90
2024/03/19 05:23:48;;;;;;;0.80;0.80;;;;;;;4.68;100.00;98677.16;6151992;23;20013;-90
2024/03/19 05:26:13;;;;;;;0.80;0.80;;;;;;;4.58;100.00;98678.44;6151271;23;20048;-91
2024/03/19 05:28:39;;;;;;;0.80;0.80;;;;;;;4.50;100.00;98678.03;6151998;23;20020;-92
2024/03/19 05:31:20;;;;;;;0.80;0.80;;;;;;;4.40;100.00;98690.66;6152290;23;20013;-90
2024/03/19 05:33:45;;;;;;;0.90;0.90;;;;;;;4.19;100.00;98680.81;6154300;23;20020;-91
2024/03/19 05:36:11;;;;;;;0.90;0.90;;;;;;;4.18;100.00;98688.66;6154040;23;20088;-90
2024/03/19 05:38:36;;;;;;;0.80;0.80;;;;;;;4.17;100.00;98684.16;6161661;23;20020;-91
2024/03/19 05:41:01;;;;;;;0.80;0.80;;;;;;;4.14;100.00;98687.56;6154418;23;19985;-90
2024/03/19 05:43:27;;;;;;;0.80;0.80;;;;;;;4.47;100.00;98688.44;6180295;23;20036;-92
2024/03/19 05:45:55;;;;;;;0.90;0.90;;;;;;;4.92;100.00;98699.56;6178626;23;20039;-91
2024/03/19 05:48:21;;;;;;;0.80;0.80;;;;;;;4.95;100.00;98693.53;6182011;23;20013;-91
2024/03/19 05:50:46;;;;;;;0.90;0.90;;;;;;;4.79;100.00;98697.09;6179255;23;20020;-90
2024/03/19 05:53:12;;;;;;;0.70;0.70;;;;;;;4.77;100.00;98702.31;6175408;23;20020;-90
2024/03/19 05:55:37;;;;;;;0.90;0.90;;;;;;;4.94;100.00;98702.28;6150789;23;20016;-89
2024/03/19 05:58:03;;;;;;;0.80;0.80;;;;;;;4.99;100.00;98704.34;6176847;23;20010;-89
2024/03/19 06:00:28;;;;;;;0.82;0.82;;;;;;;5.08;100.00;98704.81;6176913;23;20061;-91
2024/03/19 06:02:54;;;;;;;0.88;0.88;;;;;;;5.06;100.00;98708.19;6179347;23;20029;-91
2024/03/19 06:05:19;;;;;;;0.90;0.90;;;;;;;5.06;100.00;98708.19;6157557;23;19998;-90
2024/03/19 06:07:45;;;;;;;0.90;0.90;;;;;;;5.13;100.00;98705.94;6181257;23;20009;-90
2024/03/19 06:10:11;;;;;;;0.82;0.82;;;;;;;5.25;100.00;98704.72;6157031;23;20013;-90
2024/03/19 06:12:37;;;;;;;1.10;1.10;;;;;;;5.29;100.00;98706.69;6179564;23;20022;-91
2024/03/19 06:15:02;;;;;;;0.80;0.80;;;;;;;5.47;100.00;98702.31;6150178;23;20017;-90
2024/03/19 06:17:28;;;;;;;0.80;0.80;;;;;;;5.55;100.00;98700.91;6172113;23;20016;-90
2024/03/19 06:19:53;;;;;;;0.80;0.80;;;;;;;5.59;100.00;98700.22;6153014;23;20013;-88
2024/03/19 06:22:19;;;;;;;0.70;0.70;;;;;;;5.65;100.00;98710.19;6170238;23;20044;-88
2024/03/19 06:24:44;;;;;;;0.82;0.82;;;;;;;5.61;100.00;98708.25;6144598;23;20009;-87
2024/03/19 06:27:10;;;;;;;0.75;0.75;;;;;;;5.78;100.00;98717.00;6146013;23;20058;-89
2024/03/19 06:29:35;;;;;;;0.80;0.80;;;;;;;5.76;100.00;98714.28;6166693;23;20033;-88
2024/03/19 06:32:01;;;;;;;0.80;0.80;;;;;;;5.84;100.00;98710.22;6141217;23;20013;-87
2024/03/19 06:34:26;;;;;;;0.80;0.80;;;;;;;5.94;100.00;98716.94;6146351;23;20021;-89
2024/03/19 06:36:53;;;;;;;0.80;0.80;;;;;;;6.12;100.00;98716.84;6174681;23;20001;-89
2024/03/19 06:39:19;;;;;;;0.70;0.70;;;;;;;6.21;100.00;98711.97;6171407;23;20016;-91
2024/03/19 06:41:45;;;;;;;0.80;0.80;;;;;;;6.40;100.00;98714.63;6148151;23;20005;-90
2024/03/19 06:44:10;;;;;;;0.70;0.70;;;;;;;6.65;100.00;98721.94;6140132;23;20013;-88
2024/03/19 06:46:36;;;;;;;0.80;0.80;;;;;;;6.83;100.00;98723.59;6161297;23;20018;-88
2024/03/19 06:49:04;;;;;;;0.70;0.70;;;;;;;7.08;100.00;98722.88;6163664;23;20006;-88
2024/03/19 06:51:29;;;;;;;0.68;0.68;;;;;;;7.56;99.36;98717.81;6141343;23;20432;-89
2024/03/19 06:53:55;;;;;;;0.70;0.70;;;;;;;7.90;96.58;98713.00;6169345;23;20013;-88
2024/03/19 06:56:20;;;;;;;0.70;0.70;;;;;;;8.29;94.72;98728.69;6143691;23;20018;-89
2024/03/19 06:58:46;;;;;;;0.70;0.70;;;;;;;8.51;93.72;98717.13;6163198;23;20029;-87
2024/03/19 07:01:11;;;;;;;0.70;0.70;;;;;;;8.34;92.75;98723.53;6158676;23;20009;-88
2024/03/19 07:03:37;;;;;;;0.60;0.60;;;;;;;8.38;92.82;98721.06;6162576;23;20075;-88
2024/03/19 07:06:03;;;;;;;0.70;0.70;;;;;;;8.41;91.94;98729.16;6160809;23;20020;-88
2024/03/19 07:08:29;;;;;;;0.60;0.60;;;;;;;8.34;94.13;98729.78;6140560;23;20014;-88
2024/03/19 07:10:55;;;;;;;0.70;0.70;;;;;;;9.29;90.36;98732.28;6165424;23;20014;-89
2024/03/19 07:13:20;;;;;;;0.60;0.60;;;;;;;9.66;89.94;98731.75;6165880;23;20044;-88
2024/03/19 07:15:46;;;;;;;0.60;0.60;;;;;;;9.33;89.17;98737.78;6142406;23;20069;-88
2024/03/19 07:18:12;;;;;;;0.60;0.60;;;;;;;9.36;88.66;98737.88;6138229;23;20104;-89
2024/03/19 07:20:38;;;;;;;0.60;0.60;;;;;;;9.13;89.30;98741.50;6157449;23;20440;-87
2024/03/19 07:23:05;;;;;;;0.60;0.60;;;;;;;9.64;89.42;98741.47;6159353;23;20089;-87
2024/03/19 07:25:31;;;;;;;0.60;0.60;;;;;;;10.29;88.38;98737.34;6142646;23;20027;-89
2024/03/19 07:27:57;;;;;;;0.50;0.50;;;;;;;10.82;84.53;98735.31;6178228;23;20247;-89
2024/03/19 07:30:22;;;;;;;0.50;0.50;;;;;;;11.35;85.04;98740.31;6179223;23;20017;-89
2024/03/19 07:32:48;;;;;;;0.40;0.40;;;;;;;11.84;79.80;98736.25;6175775;23;20075;-89
2024/03/19 07:35:14;;;;;;;0.40;0.40;;;;;;;11.62;81.30;98733.00;6148001;23;20076;-89
2024/03/19 07:37:40;;;;;;;0.40;0.40;;;;;;;12.32;80.93;98737.41;6149174;23;20005;-88
2024/03/19 07:40:10;;;;;;;0.40;0.40;;;;;;;12.64;77.62;98728.22;6172304;23;20024;-90
2024/03/19 07:42:40;;;;;;;0.30;0.30;;;;;;;13.08;77.19;98721.13;6176108;23;20013;-89
2024/03/19 07:45:06;;;;;;;0.30;0.30;;;;;;;13.39;76.59;98724.38;6177487;23;20013;-89
2024/03/19 07:47:33;;;;;;;0.30;0.30;;;;;;;13.88;75.98;98728.78;6153491;23;20063;-89
2024/03/19 07:50:10;;;;;;;0.30;0.30;;;;;;;14.41;75.35;98722.41;6162510;23;20104;-87
2024/03/19 07:52:35;;;;;;;;;;;;;;;14.96;73.04;98725.84;6153068;23;20010;-87
2024/03/19 07:55:01;;;;;;;0.20;0.20;;;;;;;15.38;70.61;98729.00;6148653;23;20000;-87
2024/03/19 07:57:27;;;;;;;0.20;0.20;;;;;;;15.72;68.82;98723.94;6148881;23;20053;-86
2024/03/19 07:59:52;;;;;;;0.30;0.30;;;;;;;16.22;66.32;98717.13;6148910;23;20006;-87
2024/03/19 08:02:19;;;;;;;0.20;0.20;;;;;;;16.57;65.38;98720.03;6123959;23;20013;-87
2024/03/19 08:04:50;;;;;;;;;;;;;;;16.67;65.72;98721.88;6129225;23;20009;-88
2024/03/19 08:07:16;;;;;;;0.20;0.20;;;;;;;16.98;60.82;98727.44;6148034;23;19912;-87
2024/03/19 08:09:41;;;;;;;0.20;0.20;;;;;;;17.12;61.16;98728.38;6147624;23;20449;-87
2024/03/19 08:12:07;;;;;;;0.20;0.20;;;;;;;18.15;57.04;98730.28;6123477;23;20013;-88
2024/03/19 08:14:34;;;;;;;0.20;0.20;;;;;;;19.29;52.15;98719.13;6147870;23;20005;-88
2024/03/19 08:16:59;;;;;;;0.20;0.20;;;;;;;19.57;50.47;98722.56;6146793;23;20013;-88
2024/03/19 08:19:25;;;;;;;0.20;0.20;;;;;;;18.31;52.67;98731.19;6123712;23;20017;-88
2024/03/19 08:21:51;;;;;;;0.20;0.20;;;;;;;18.33;52.48;98731.16;6123301;23;20013;-88
2024/03/19 08:24:16;;;;;;;0.17;0.17;;;;;;;17.56;54.30;98739.25;6149163;23;20032;-86
2024/03/19 08:26:44;;;;;;;0.20;0.20;;;;;;;17.99;54.08;98736.59;6150600;23;20124;-87
2024/03/19 08:29:11;;;;;;;0.10;0.10;;;;;;;18.14;53.03;98743.78;6147296;23;20017;-88
2024/03/19 08:31:37;;;;;;;;;;;;;;;17.82;53.13;98743.78;6116475;23;20014;-88
2024/03/19 08:34:03;;;;;;;0.20;0.20;;;;;;;17.93;53.24;98742.03;6171813;23;19912;-87
2024/03/19 08:36:28;;;;;;;0.20;0.20;;;;;;;18.06;52.44;98738.41;6146637;23;20125;-87
2024/03/19 08:38:54;;;;;;;0.20;0.20;;;;;;;17.77;53.46;98742.91;6148012;23;20083;-86
2024/03/19 08:41:19;;;;;;;0.20;0.20;;;;;;;18.43;51.96;98749.16;6123421;23;20337;-86
2024/03/19 08:43:50;;;;;;;0.20;0.20;;;;;;;17.49;54.72;98753.66;6152970;23;20083;-86
2024/03/19 08:46:17;;;;;;;0.20;0.20;;;;;;;17.50;54.63;98752.75;6149206;23;20017;-86
2024/03/19 08:48:42;;;;;;;0.20;0.20;;;;;;;17.37;54.51;98759.00;6149936;23;20013;-85
2024/03/19 08:51:08;;;;;;;0.20;0.20;;;;;;;17.26;53.92;98756.28;6148231;23;20048;-86
2024/03/19 08:53:33;;;;;;;0.20;0.20;;;;;;;16.83;55.40;98750.72;6148448;23;20152;-86
2024/03/19 08:56:00;;;;;;;0.30;0.30;;;;;;;17.28;54.83;98758.97;6148530;23;20009;-85
2024/03/19 08:58:25;;;;;;;0.30;0.30;;;;;;;17.63;53.62;98754.56;6148189;23;20472;-86
2024/03/19 09:00:51;;;;;;;0.30;0.30;;;;;;;18.55;51.20;98743.75;6149603;23;19998;-85
2024/03/19 09:03:16;;;;;;;0.20;0.20;;;;;;;19.07;49.83;98751.69;6125372;23;20075;-87
2024/03/19 09:05:42;;;;;;;0.30;0.30;;;;;;;19.78;48.57;98751.28;6124904;23;20017;-87
2024/03/19 09:08:07;;;;;;;0.20;0.20;;;;;;;20.04;48.64;98745.69;6147994;23;20010;-87
2024/03/19 09:10:33;;;;;;;0.20;0.20;;;;;;;19.53;48.77;98746.03;6149196;23;20402;-88
2024/03/19 09:12:59;;;;;;;0.30;0.30;;;;;;;19.49;48.97;98753.25;6124940;23;20020;-88
2024/03/19 09:15:26;;;;;;;0.20;0.20;;;;;;;18.75;49.69;98745.53;6149756;23;20010;-89
2024/03/19 09:17:53;;;;;;;0.20;0.20;;;;;;;19.80;48.99;98739.56;6149074;23;20013;-89
2024/03/19 09:20:19;;;;;;;0.20;0.20;;;;;;;19.87;47.63;98737.69;6150553;23;20085;-87
2024/03/19 09:22:44;;;;;;;0.20;0.20;;;;;;;19.27;48.79;98743.50;6125909;23;20036;-87
2024/03/19 09:25:10;;;;;;;0.20;0.20;;;;;;;18.60;49.78;98744.63;6149638;23;20024;-88
2024/03/19 09:27:39;;;;;;;0.20;0.20;;;;;;;18.68;50.12;98736.47;6149988;23;20040;-87
2024/03/19 09:30:07;;;;;;;0.20;0.20;;;;;;;18.15;52.42;98749.19;6151500;23;20013;-88
2024/03/19 09:32:34;;;;;;;0.20;0.20;;;;;;;18.49;50.96;98754.53;6150063;23;20393;-87
2024/03/19 09:35:00;;;;;;;0.20;0.20;;;;;;;18.91;49.34;98755.34;6148564;23;20020;-89
2024/03/19 09:37:26;;;;;;;0.20;0.20;;;;;;;18.64;50.01;98749.13;6149157;23;20342;-89
2024/03/19 09:39:51;;;;;;;0.30;0.30;;;;;;;18.53;50.86;98753.63;6123963;23;20017;-89
2024/03/19 09:42:23;;;;;;;0.30;0.30;;;;;;;18.84;49.79;98748.19;6124681;23;20017;-87
2024/03/19 09:44:51;;;;;;;0.20;0.20;;;;;;;19.20;48.05;98756.13;6124730;23;20018;-87
2024/03/19 09:47:18;;;;;;;0.20;0.20;;;;;;;19.06;48.30;98752.59;6152764;23;20079;-89
2024/03/19 09:49:43;;;;;;;0.25;0.25;;;;;;;18.84;49.09;98750.91;6155201;23;20014;-88
2024/03/19 09:52:09;;;;;;;0.20;0.20;;;;;;;18.41;51.00;98759.97;6153475;23;20021;-88
2024/03/19 09:54:34;;;;;;;0.30;0.30;;;;;;;18.62;50.30;98755.41;6154249;23;20013;-89
2024/03/19 09:57:03;;;;;;;0.20;0.20;;;;;;;18.58;50.51;98745.50;6152342;23;20085;-89
2024/03/19 09:59:29;;;;;;;0.20;0.20;;;;;;;18.39;49.79;98748.25;6154735;23;20020;-89
2024/03/19 10:01:55;;;;;;;0.22;0.22;;;;;;;18.91;49.02;98741.84;6133238;23;20009;-88
2024/03/19 10:04:22;;;;;;;0.20;0.20;;;;;;;18.71;50.15;98742.81;6157665;23;20040;-88
2024/03/19 10:06:48;;;;;;;;;;;;;;;19.27;48.56;98748.00;6163312;23;20017;-89
2024/03/19 10:09:17;;;;;;;0.23;0.23;;;;;;;19.34;48.57;98741.63;6135730;23;19913;-89
2024/03/19 10:11:46;;;;;;;0.20;0.20;;;;;;;18.68;49.72;98744.59;6162846;23;20422;-87
2024/03/19 10:14:13;;;;;;;0.20;0.20;;;;;;;17.94;51.27;98746.50;6135703;23;20067;-89
2024/03/19 10:16:40;;;;;;;0.20;0.20;;;;;;;18.58;50.63;98743.72;6161563;23;20115;-89
2024/03/19 10:19:06;;;;;;;0.20;0.20;;;;;;;18.25;51.19;98741.06;6135809;23;20041;-88
2024/03/19 10:21:31;;;;;;;0.20;0.20;;;;;;;19.11;49.65;98749.84;6157251;23;20013;-88
2024/03/19 10:23:57;;;;;;;0.30;0.30;;;;;;;19.72;47.98;98741.41;6155863;23;20462;-89
2024/03/19 10:26:23;;;;;;;0.20;0.20;;;;;;;20.39;47.07;98750.78;6130747;23;20025;-89
2024/03/19 10:28:48;;;;;;;0.30;0.30;;;;;;;20.23;44.95;98733.78;6155584;23;20140;-89
2024/03/19 10:31:16;;;;;;;0.30;0.30;;;;;;;20.87;43.76;98730.38;6157745;23;20076;-89
2024/03/19 10:33:44;;;;;;;0.20;0.20;;;;;;;22.79;38.93;98726.44;6163216;23;20001;-88
2024/03/19 10:36:22;;;;;;;0.20;0.20;;;;;;;23.38;39.66;98725.25;6159016;23;20010;-88
2024/03/19 10:38:48;;;;;;;0.20;0.20;;;;;;;24.35;36.57;98719.28;6161739;23;20010;-90
2024/03/19 10:41:14;;;;;;;0.10;0.10;;;;;;;23.94;36.23;98721.22;6162560;23;20090;-88
2024/03/19 10:43:42;;;;;;;0.20;0.20;;;;;;;23.78;37.07;98712.53;6160910;23;20243;-90
2024/03/19 10:46:11;;;;;;;0.10;0.10;;;;;;;22.89;38.05;98712.69;6166520;23;20228;-88
2024/03/19 10:48:37;;;;;;;0.10;0.10;;;;;;;22.68;39.55;98709.47;6169036;23;20014;-88
2024/03/19 10:51:04;;;;;;;0.20;0.20;;;;;;;24.09;36.10;98706.31;6151409;23;20017;-90
2024/03/19 10:53:33;;;;;;;0.10;0.10;;;;;;;22.99;37.26;98712.47;6177028;23;20001;-89
2024/03/19 10:56:01;;;;;;;0.20;0.20;;;;;;;23.26;37.42;98710.09;6173372;23;19997;-90
2024/03/19 10:58:26;;;;;;;0.10;0.10;;;;;;;23.05;37.19;98708.75;6166240;23;20013;-90
2024/03/19 11:00:52;;;;;;;0.10;0.10;;;;;;;23.11;39.24;98707.72;6168593;23;20013;-89
2024/03/19 11:03:20;;;;;;;0.10;0.10;;;;;;;24.40;36.49;98708.28;6140842;23;20575;-90
2024/03/19 11:05:51;;;;;;;0.10;0.10;;;;;;;25.74;33.60;98698.84;6138201;23;20025;-89
2024/03/19 11:08:17;;;;;;;0.10;0.10;;;;;;;25.80;32.43;98698.66;6139616;23;20044;-90
2024/03/19 11:10:44;;;;;;;0.10;0.10;;;;;;;23.88;35.40;98705.03;6145761;23;20010;-90
2024/03/19 11:13:16;;;;;;;0.10;0.10;;;;;;;22.73;37.63;98704.81;6177173;23;20013;-90
2024/03/19 11:15:44;;;;;;;0.20;0.20;;;;;;;21.23;42.39;98717.28;6165245;23;20021;-89
2024/03/19 11:18:13;;;;;;;0.20;0.20;;;;;;;22.61;39.57;98702.31;6159377;23;20041;-91
2024/03/19 11:20:47;;;;;;;0.20;0.20;;;;;;;21.99;39.95;98708.00;6160646;23;20001;-90
2024/03/19 11:23:27;;;;;;;0.20;0.20;;;;;;;23.03;38.36;98700.59;6162957;23;20306;-89
2024/03/19 11:25:57;;;;;;;0.20;0.20;;;;;;;24.65;33.92;98692.13;6162872;23;20033;-90
2024/03/19 11:28:26;;;;;;;0.20;0.20;;;;;;;24.42;34.14;98698.19;6146453;23;20028;-89
2024/03/19 11:30:56;;;;;;;0.20;0.20;;;;;;;25.12;33.91;98700.81;6165450;23;20002;-88